createdAt,value
2023-01-10T00:00:01.107Z,98.56
2023-01-10T00:01:01.059Z,99.06
2023-01-10T00:02:01.030Z,109.50
2023-01-10T00:03:01.025Z,114.91
2023-01-10T00:04:00.967Z,104.43
2023-01-10T00:05:01.063Z,100.80
2023-01-10T00:06:00.905Z,97.98
2023-01-10T00:07:00.892Z,111.27
2023-01-10T00:08:00.839Z,111.89
2023-01-10T00:09:00.827Z,103.54
2023-01-10T00:10:00.781Z,97.94
2023-01-10T00:11:00.761Z,94.30
2023-01-10T00:12:00.739Z,99.72
2023-01-10T00:13:00.696Z,105.63
2023-01-10T00:14:00.664Z,113.90
2023-01-10T00:15:00.637Z,101.51
2023-01-10T00:16:00.613Z,93.83
2023-01-10T00:17:00.579Z,95.84
2023-01-10T00:18:00.534Z,103.74
2023-01-10T00:19:00.507Z,109.38
2023-01-10T00:20:00.476Z,110.10
2023-01-10T00:21:00.436Z,106.13
2023-01-10T00:22:00.412Z,89.31
2023-01-10T00:23:00.377Z,97.78
2023-01-10T00:24:00.345Z,99.64
2023-01-10T00:25:00.304Z,110.06
2023-01-10T00:26:00.291Z,103.21
2023-01-10T00:27:00.265Z,92.07
2023-01-10T00:28:00.228Z,97.82
2023-01-10T00:29:00.201Z,98.91
2023-01-10T00:30:00.192Z,102.06
2023-01-10T00:31:00.281Z,114.21
2023-01-10T00:32:00.113Z,99.08
2023-01-10T00:33:00.110Z,86.07
2023-01-10T00:34:00.056Z,95.48
2023-01-10T00:35:00.038Z,103.06
2023-01-10T00:35:59.996Z,107.45
2023-01-10T00:36:59.968Z,106.67
2023-01-10T00:37:59.956Z,94.34
2023-01-10T00:38:59.903Z,94.12
2023-01-10T00:39:59.885Z,103.34
2023-01-10T00:40:59.842Z,103.31
2023-01-10T00:41:59.796Z,112.93
2023-01-10T00:42:59.767Z,101.49
2023-01-10T00:43:59.740Z,89.64
2023-01-10T00:44:59.698Z,95.00
2023-01-10T00:45:59.696Z,95.57
2023-01-10T00:46:59.617Z,105.31
2023-01-10T00:47:59.576Z,114.98
2023-01-10T00:48:59.556Z,97.77
2023-01-10T00:49:59.512Z,100.23
2023-01-10T00:50:59.482Z,94.66
2023-01-10T00:51:59.439Z,99.02
2023-01-10T00:52:59.411Z,110.27
2023-01-10T00:53:59.380Z,99.36
2023-01-10T00:54:59.347Z,96.32
2023-01-10T00:55:59.313Z,97.48
2023-01-10T00:56:59.275Z,101.62
2023-01-10T00:57:59.242Z,105.82
2023-01-10T00:58:59.209Z,116.67
2023-01-10T00:59:59.179Z,97.73
2023-01-10T01:00:59.177Z,91.50
2023-01-10T01:01:59.194Z,99.92
2023-01-10T01:02:59.110Z,103.12
2023-01-10T01:03:59.033Z,109.43
2023-01-10T01:04:59.005Z,102.15
2023-01-10T01:05:58.974Z,103.21
2023-01-10T01:07:00.132Z,88.64
2023-01-10T01:07:58.925Z,102.39
2023-01-10T01:08:58.874Z,100.22
2023-01-10T01:09:58.841Z,111.23
2023-01-10T01:10:58.807Z,103.24
2023-01-10T01:11:58.772Z,99.78
2023-01-10T01:12:58.743Z,97.13
2023-01-10T01:13:58.707Z,99.44
2023-01-10T01:14:58.679Z,115.17
2023-01-10T01:15:58.693Z,107.31
2023-01-10T01:16:58.622Z,95.59
2023-01-10T01:17:58.583Z,95.12
2023-01-10T01:18:58.552Z,98.75
2023-01-10T01:19:58.517Z,106.97
2023-01-10T01:20:58.491Z,116.11
2023-01-10T01:21:58.459Z,111.06
2023-01-10T01:22:58.416Z,94.69
2023-01-10T01:23:58.392Z,99.87
2023-01-10T01:24:58.359Z,102.52
2023-01-10T01:25:58.339Z,113.59
2023-01-10T01:26:58.307Z,103.42
2023-01-10T01:27:58.266Z,103.71
2023-01-10T01:28:58.236Z,98.43
2023-01-10T01:29:58.198Z,101.83
2023-01-10T01:30:58.179Z,105.10
2023-01-10T01:31:58.129Z,112.72
2023-01-10T01:32:58.154Z,106.08
2023-01-10T01:33:58.081Z,94.78
2023-01-10T01:34:58.045Z,97.55
2023-01-10T01:35:58.015Z,98.94
2023-01-10T01:36:58.020Z,105.43
2023-01-10T01:37:57.946Z,112.14
2023-01-10T01:38:57.935Z,102.07
2023-01-10T01:39:57.931Z,92.82
2023-01-10T01:40:57.916Z,96.22
2023-01-10T01:41:57.839Z,100.55
2023-01-10T01:42:57.801Z,110.02
2023-01-10T01:43:57.766Z,105.31
2023-01-10T01:44:57.729Z,94.92
2023-01-10T01:45:57.722Z,94.86
2023-01-10T01:46:57.668Z,101.95
2023-01-10T01:47:57.621Z,103.22
2023-01-10T01:48:57.602Z,110.93
2023-01-10T01:49:57.599Z,102.53
2023-01-10T01:50:57.539Z,92.20
2023-01-10T01:51:57.506Z,103.21
2023-01-10T01:52:57.481Z,104.10
2023-01-10T01:53:57.441Z,111.94
2023-01-10T01:54:57.431Z,109.84
2023-01-10T01:55:57.366Z,98.08
2023-01-10T01:56:57.356Z,89.21
2023-01-10T01:57:57.300Z,95.80
2023-01-10T01:58:57.286Z,99.84
2023-01-10T01:59:57.243Z,112.23
2023-01-10T02:00:57.221Z,98.28
2023-01-10T02:01:57.223Z,91.91
2023-01-10T02:03:02.575Z,98.54
2023-01-10T02:03:58.150Z,98.74
2023-01-10T02:04:57.079Z,100.47
2023-01-10T02:05:57.045Z,102.30
2023-01-10T02:06:57.023Z,95.42
2023-01-10T02:07:56.985Z,90.57
2023-01-10T02:08:56.949Z,98.04
2023-01-10T02:09:56.920Z,98.83
2023-01-10T02:10:56.885Z,112.22
2023-01-10T02:11:56.852Z,101.92
2023-01-10T02:12:56.820Z,96.56
2023-01-10T02:13:56.789Z,98.30
2023-01-10T02:14:56.762Z,91.69
2023-01-10T02:15:56.737Z,103.50
2023-01-10T02:16:56.706Z,110.51
2023-01-10T02:17:56.668Z,100.09
2023-01-10T02:18:56.647Z,93.90
2023-01-10T02:19:56.627Z,99.05
2023-01-10T02:20:56.595Z,101.51
2023-01-10T02:21:56.565Z,107.68
2023-01-10T02:22:56.535Z,105.10
2023-01-10T02:23:56.504Z,100.32
2023-01-10T02:24:56.476Z,98.83
2023-01-10T02:25:56.439Z,104.01
2023-01-10T02:26:56.413Z,101.02
2023-01-10T02:27:56.389Z,110.24
2023-01-10T02:28:56.382Z,104.56
2023-01-10T02:29:56.336Z,94.86
2023-01-10T02:30:56.325Z,100.43
2023-01-10T02:31:56.271Z,100.64
2023-01-10T02:33:04.614Z,101.64
2023-01-10T02:33:57.222Z,100.84
2023-01-10T02:34:56.182Z,100.45
2023-01-10T02:35:56.145Z,91.56
2023-01-10T02:36:56.115Z,102.04
2023-01-10T02:37:56.088Z,101.48
2023-01-10T02:38:56.065Z,108.46
2023-01-10T02:39:56.025Z,106.14
2023-01-10T02:40:55.990Z,94.74
2023-01-10T02:41:55.987Z,96.03
2023-01-10T02:42:55.935Z,104.79
2023-01-10T02:43:55.914Z,107.07
2023-01-10T02:44:55.892Z,110.53
2023-01-10T02:45:55.849Z,101.94
2023-01-10T02:46:55.806Z,97.64
2023-01-10T02:47:55.784Z,102.62
2023-01-10T02:48:55.749Z,106.93
2023-01-10T02:49:55.721Z,109.07
2023-01-10T02:50:55.689Z,103.99
2023-01-10T02:51:55.662Z,96.46
2023-01-10T02:52:55.624Z,95.78
2023-01-10T02:53:55.597Z,103.28
2023-01-10T02:54:55.555Z,103.90
2023-01-10T02:55:55.523Z,112.42
2023-01-10T02:56:55.489Z,104.82
2023-01-10T02:57:55.466Z,98.55
2023-01-10T02:58:55.458Z,100.21
2023-01-10T02:59:55.423Z,100.44
2023-01-10T03:00:55.430Z,104.30
2023-01-10T03:01:55.417Z,110.97
2023-01-10T03:02:55.314Z,102.25
2023-01-10T03:03:55.297Z,97.53
2023-01-10T03:04:55.283Z,98.21
2023-01-10T03:05:55.233Z,103.78
2023-01-10T03:06:55.194Z,107.68
2023-01-10T03:07:55.164Z,102.08
2023-01-10T03:08:55.133Z,98.73
2023-01-10T03:09:55.099Z,99.46
2023-01-10T03:10:55.073Z,103.15
2023-01-10T03:11:55.035Z,107.84
2023-01-10T03:12:54.999Z,112.90
2023-01-10T03:13:54.974Z,102.15
2023-01-10T03:14:54.938Z,88.12
2023-01-10T03:15:54.963Z,98.41
2023-01-10T03:16:54.879Z,101.47
2023-01-10T03:17:54.843Z,108.91
2023-01-10T03:18:54.817Z,110.07
2023-01-10T03:19:54.808Z,107.09
2023-01-10T07:33:47.494Z,227.69
2023-01-10T07:34:47.456Z,225.98
2023-01-10T07:35:47.425Z,225.69
2023-01-10T07:36:47.400Z,222.57
2023-01-10T07:37:47.362Z,222.82
2023-01-10T07:38:47.329Z,223.75
2023-01-10T07:39:47.286Z,225.19
2023-01-10T07:40:47.265Z,224.81
2023-01-10T07:41:47.245Z,226.30
2023-01-10T07:42:47.189Z,221.88
2023-01-10T07:43:47.145Z,223.66
2023-01-10T07:44:49.322Z,222.03
2023-01-10T07:45:47.075Z,222.07
2023-01-10T07:46:47.045Z,210.79
2023-01-10T07:47:47.016Z,210.64
2023-01-10T07:48:46.980Z,212.00
2023-01-10T07:49:46.932Z,219.83
2023-01-10T07:50:46.896Z,213.78
2023-01-10T07:51:46.846Z,221.83
2023-01-10T07:52:46.817Z,223.01
2023-01-10T07:53:46.764Z,228.27
2023-01-10T07:54:46.734Z,230.28
2023-01-10T07:55:46.694Z,231.49
2023-01-10T07:56:46.645Z,231.83
2023-01-10T07:57:46.601Z,232.57
2023-01-10T07:58:46.541Z,234.56
2023-01-10T07:59:46.497Z,240.38
2023-01-10T08:00:46.440Z,248.14
2023-01-10T08:01:46.383Z,249.95
2023-01-10T08:02:46.499Z,247.59
2023-01-10T08:03:46.385Z,250.00
2023-01-10T08:04:46.260Z,248.28
2023-01-10T08:05:46.198Z,249.40
2023-01-10T08:06:46.175Z,250.00
2023-01-10T08:07:46.120Z,250.00
2023-01-10T08:08:46.050Z,242.83
2023-01-10T08:09:45.983Z,250.00
2023-01-10T08:10:45.945Z,248.92
2023-01-10T08:11:45.874Z,246.84
2023-01-10T08:12:45.863Z,247.01
2023-01-10T08:13:45.770Z,247.66
2023-01-10T08:14:45.835Z,247.12
2023-01-10T08:15:45.724Z,248.09
2023-01-10T08:16:45.626Z,250.78
2023-01-10T08:17:45.558Z,251.54
2023-01-10T08:18:45.518Z,256.27
2023-01-10T08:19:45.451Z,245.61
2023-01-10T08:20:45.392Z,250.00
2023-01-10T08:21:45.349Z,249.39
2023-01-10T08:22:45.278Z,250.00
2023-01-10T08:23:45.232Z,244.51
2023-01-10T08:24:45.183Z,244.33
2023-01-10T08:25:45.109Z,241.08
2023-01-10T08:26:45.059Z,241.31
2023-01-10T08:27:45.023Z,243.22
2023-01-10T08:28:44.943Z,243.33
2023-01-10T08:29:44.884Z,243.52
2023-01-10T08:30:44.843Z,244.16
2023-01-10T10:21:39.865Z,242.49
2023-01-10T10:22:39.814Z,237.58
2023-01-10T10:23:39.755Z,233.09
2023-01-10T10:24:39.711Z,219.18
2023-01-10T10:25:39.659Z,223.83
2023-01-10T10:26:39.606Z,240.93
2023-01-10T10:27:39.549Z,243.28
2023-01-10T10:28:53.603Z,241.06
2023-01-10T10:29:40.476Z,241.25
2023-01-10T10:30:39.416Z,241.24
2023-01-10T10:31:39.383Z,245.07
2023-01-10T10:32:39.307Z,254.70
2023-01-10T10:33:39.270Z,264.51
2023-01-10T10:34:39.212Z,247.88
2023-01-10T10:35:39.162Z,232.00
2023-01-10T10:36:39.104Z,229.55
2023-01-10T10:37:39.036Z,242.38
2023-01-10T10:38:39.005Z,250.00
2023-01-10T10:39:38.943Z,244.94
2023-01-10T10:40:38.888Z,240.50
2023-01-10T10:41:38.840Z,227.92
2023-01-10T10:42:38.802Z,231.90
2023-01-10T10:43:38.749Z,247.11
2023-01-10T10:44:38.705Z,239.64
2023-01-10T10:45:38.670Z,232.55
2023-01-10T10:46:38.597Z,237.18
2023-01-10T10:47:38.537Z,232.91
2023-01-10T10:48:38.500Z,228.42
2023-01-10T10:49:38.451Z,241.58
2023-01-10T10:50:38.388Z,235.50
2023-01-10T10:51:38.329Z,231.49
2023-01-10T10:52:38.286Z,220.76
2023-01-10T10:53:38.250Z,206.52
2023-01-10T10:54:38.175Z,210.83
2023-01-10T10:55:38.142Z,220.53
2023-01-10T10:56:38.072Z,216.66
2023-01-10T10:57:38.719Z,207.03
2023-01-10T10:58:38.003Z,192.81
2023-01-10T10:59:37.938Z,189.31
2023-01-10T11:00:37.907Z,197.90
2023-01-10T11:01:37.996Z,202.60
2023-01-10T11:02:37.790Z,192.80
2023-01-10T11:03:37.744Z,203.92
2023-01-10T11:04:37.713Z,208.76
2023-01-10T11:05:37.645Z,212.16
2023-01-10T11:06:37.580Z,226.53
2023-01-10T11:07:37.520Z,221.60
2023-01-10T11:08:37.480Z,217.84
2023-01-10T11:09:37.426Z,204.29
2023-01-10T11:10:37.379Z,202.83
2023-01-10T11:11:37.322Z,206.30
2023-01-10T11:12:37.283Z,213.84
2023-01-10T11:13:37.227Z,206.88
2023-01-10T11:14:37.173Z,199.72
2023-01-10T11:15:37.120Z,198.84
2023-01-10T11:16:37.101Z,196.87
2023-01-10T11:17:37.021Z,203.04
2023-01-10T11:18:36.953Z,202.49
2023-01-10T11:19:36.908Z,202.27
2023-01-10T11:20:36.853Z,194.74
2023-01-10T11:21:36.807Z,189.31
2023-01-10T11:22:36.753Z,182.69
2023-01-10T11:23:36.710Z,195.05
2023-01-10T11:24:36.653Z,187.39
2023-01-10T11:25:36.615Z,183.91
2023-01-10T11:26:36.562Z,179.55
2023-01-10T11:27:36.516Z,170.08
2023-01-10T11:28:36.454Z,173.38
2023-01-10T11:29:36.403Z,179.08
2023-01-10T11:30:36.343Z,172.50
2023-01-10T11:31:36.369Z,164.16
2023-01-10T11:32:36.234Z,158.53
2023-01-10T11:33:36.174Z,159.95
2023-01-10T11:34:36.113Z,168.88
2023-01-10T11:35:36.062Z,170.33
2023-01-10T11:36:36.021Z,164.33
2023-01-10T11:37:35.963Z,161.26
2023-01-10T11:38:35.895Z,155.16
2023-01-10T11:39:35.862Z,156.60
2023-01-10T11:40:35.784Z,163.38
2023-01-10T11:41:35.738Z,162.71
2023-01-10T11:42:35.693Z,154.92
2023-01-10T11:43:35.637Z,150.65
2023-01-10T11:44:35.589Z,149.52
2023-01-10T11:45:35.597Z,154.38
2023-01-10T11:46:35.543Z,158.91
2023-01-10T11:47:41.668Z,152.48
2023-01-10T11:49:03.826Z,152.52
2023-01-10T11:49:36.340Z,146.63
2023-01-10T11:50:35.291Z,148.29
2023-01-10T11:51:35.261Z,147.72
2023-01-10T11:52:35.171Z,151.17
2023-01-10T11:53:35.124Z,138.09
2023-01-10T11:54:35.078Z,136.57
2023-01-10T11:55:35.014Z,130.23
2023-01-10T11:56:34.950Z,139.10
2023-01-10T11:57:34.885Z,142.50
2023-01-10T11:58:34.798Z,133.32
2023-01-10T11:59:34.767Z,126.16
2023-01-10T12:00:34.663Z,130.51
2023-01-10T12:01:34.647Z,131.97
2023-01-10T12:02:34.605Z,134.53
2023-01-10T12:03:34.491Z,136.92
2023-01-10T12:04:34.446Z,134.96
2023-01-10T12:05:34.377Z,132.08
2023-01-10T12:06:34.294Z,127.45
2023-01-10T12:07:34.262Z,126.05
2023-01-10T12:08:34.202Z,131.48
2023-01-10T12:09:34.144Z,130.01
2023-01-10T12:10:34.072Z,122.44
2023-01-10T12:11:34.021Z,123.02
2023-01-10T12:12:33.956Z,127.80
2023-01-10T12:13:33.908Z,116.97
2023-01-10T12:14:33.834Z,127.02
2023-01-10T12:15:33.776Z,127.10
2023-01-10T12:16:33.878Z,125.70
2023-01-10T12:17:33.670Z,121.43
2023-01-10T12:18:33.612Z,117.59
2023-01-10T12:19:33.822Z,119.19
2023-01-10T12:20:33.500Z,121.83
2023-01-10T12:21:33.435Z,119.82
2023-01-10T12:22:33.399Z,120.58
2023-01-10T12:23:33.345Z,122.60
2023-01-10T14:10:28.072Z,116.51
2023-01-10T14:11:28.012Z,115.56
2023-01-10T14:12:27.984Z,114.93
2023-01-10T14:13:27.929Z,113.79
2023-01-10T14:14:27.879Z,113.05
2023-01-10T14:15:27.839Z,116.00
2023-01-10T14:16:27.785Z,116.03
2023-01-10T14:17:27.730Z,112.17
2023-01-10T14:18:27.704Z,114.71
2023-01-10T14:19:27.644Z,114.24
2023-01-10T14:20:27.599Z,116.33
2023-01-10T14:21:27.566Z,116.30
2023-01-10T14:22:27.528Z,114.16
2023-01-10T14:23:27.472Z,113.95
2023-01-10T14:24:27.421Z,114.65
2023-01-10T14:25:27.380Z,109.98
2023-01-10T14:26:27.337Z,115.75
2023-01-10T14:27:27.303Z,114.08
2023-01-10T14:28:27.251Z,112.90
2023-01-10T14:29:27.213Z,113.15
2023-01-10T14:30:27.180Z,114.06
2023-01-10T14:31:27.196Z,111.78
2023-01-10T14:32:27.068Z,113.90
2023-01-10T14:33:27.018Z,111.86
2023-01-10T14:34:26.984Z,115.17
2023-01-10T14:35:26.940Z,115.33
2023-01-10T14:36:26.886Z,113.14
2023-01-10T14:37:26.839Z,113.18
2023-01-10T14:38:26.790Z,115.12
2023-01-10T14:39:26.742Z,114.54
2023-01-10T14:40:26.715Z,114.64
2023-01-10T14:41:26.655Z,113.28
2023-01-10T14:42:26.610Z,114.38
2023-01-10T14:43:26.589Z,112.35
2023-01-10T14:44:26.533Z,111.70
2023-01-10T14:45:26.500Z,112.51
2023-01-10T14:46:26.534Z,111.25
2023-01-10T14:47:26.424Z,113.03
2023-01-10T14:48:26.367Z,114.93
2023-01-10T14:49:26.319Z,112.95
2023-01-10T14:50:26.288Z,113.47
2023-01-10T14:51:26.241Z,109.20
2023-01-10T14:52:26.181Z,109.15
2023-01-10T14:53:26.151Z,108.00
2023-01-10T14:54:26.095Z,109.74
2023-01-10T14:55:26.051Z,109.94
2023-01-10T14:56:26.007Z,110.58
2023-01-10T14:57:25.950Z,110.48
2023-01-10T14:58:25.917Z,113.34
2023-01-10T14:59:25.874Z,111.51
2023-01-10T15:00:25.816Z,111.22
2023-01-10T15:01:25.957Z,110.72
2023-01-10T15:02:25.752Z,111.68
2023-01-10T15:03:25.688Z,108.06
2023-01-10T15:04:25.670Z,108.16
2023-01-10T15:05:25.600Z,112.42
2023-01-10T15:06:26.154Z,110.56
2023-01-10T15:07:25.533Z,108.31
2023-01-10T15:08:25.486Z,112.76
2023-01-10T15:09:25.429Z,109.40
2023-01-10T15:10:25.388Z,108.69
2023-01-10T15:11:25.359Z,111.36
2023-01-10T15:12:25.317Z,111.77
2023-01-10T15:13:25.267Z,113.46
2023-01-10T15:14:25.249Z,111.04
2023-01-10T15:15:25.204Z,109.78
2023-01-10T15:16:25.140Z,110.14
2023-01-10T15:17:25.094Z,109.94
2023-01-10T15:18:25.060Z,110.17
2023-01-10T15:19:25.018Z,110.66
2023-01-10T15:20:24.974Z,110.30
2023-01-10T15:21:24.934Z,108.27
2023-01-10T15:22:26.249Z,110.04
2023-01-10T15:23:24.850Z,111.83
2023-01-10T15:24:24.798Z,110.63
2023-01-10T15:25:24.764Z,108.10
2023-01-10T15:26:24.714Z,107.76
2023-01-10T15:27:24.670Z,109.31
2023-01-10T15:28:24.636Z,109.11
2023-01-10T15:29:24.616Z,109.93
2023-01-10T15:30:24.542Z,108.94
2023-01-10T15:31:24.563Z,107.59
2023-01-10T15:32:24.466Z,109.45
2023-01-10T15:33:24.416Z,107.87
2023-01-10T15:34:24.382Z,107.70
2023-01-10T15:35:35.200Z,109.79
2023-01-10T15:36:26.368Z,109.97
2023-01-10T15:37:24.241Z,109.00
2023-01-10T15:38:24.209Z,110.11
2023-01-10T15:39:24.154Z,109.91
2023-01-10T15:40:24.130Z,111.64
2023-01-10T15:41:24.067Z,110.88
2023-01-10T15:42:24.041Z,109.46
2023-01-10T15:43:23.990Z,110.12
2023-01-10T15:44:23.938Z,109.78
2023-01-10T15:45:23.890Z,109.34
2023-01-10T15:46:23.952Z,108.31
2023-01-10T15:47:23.817Z,110.59
2023-01-10T15:48:23.761Z,107.94
2023-01-10T15:49:23.706Z,109.75
2023-01-10T15:50:23.657Z,108.68
2023-01-10T15:51:23.637Z,107.55
2023-01-10T15:52:23.588Z,108.11
2023-01-10T15:53:23.520Z,107.63
2023-01-10T15:54:23.483Z,107.90
2023-01-10T15:55:25.040Z,108.02
2023-01-10T15:56:23.406Z,108.17
2023-01-10T15:57:23.344Z,108.34
2023-01-10T15:58:23.292Z,108.76
2023-01-10T15:59:23.262Z,110.38
2023-01-10T16:00:23.207Z,110.31
2023-01-10T16:01:23.290Z,106.31
2023-01-10T16:02:23.282Z,107.98
2023-01-10T16:03:23.157Z,109.82
2023-01-10T16:04:23.017Z,108.97
2023-01-10T16:05:22.970Z,107.21
2023-01-10T16:06:22.916Z,106.89
2023-01-10T16:07:22.879Z,108.02
2023-01-10T16:08:22.825Z,108.02
2023-01-10T16:09:22.777Z,101.88
2023-01-10T16:10:22.736Z,107.78
2023-01-10T16:11:22.692Z,103.91
2023-01-10T16:12:22.666Z,105.53
2023-01-10T16:13:22.594Z,103.55
2023-01-10T16:14:22.556Z,106.33
2023-01-10T16:15:22.516Z,106.98
2023-01-10T16:16:22.550Z,105.23
2023-01-10T16:17:22.436Z,105.10
2023-01-10T16:18:22.427Z,106.70
2023-01-10T16:19:22.356Z,106.16
2023-01-10T16:20:22.329Z,105.78
2023-01-10T16:21:22.271Z,108.60
2023-01-10T16:22:22.240Z,108.01
2023-01-10T16:23:22.201Z,103.41
2023-01-10T16:24:22.173Z,104.33
2023-01-10T16:25:22.109Z,106.86
2023-01-10T16:26:22.074Z,104.92
2023-01-10T16:27:22.039Z,105.98
2023-01-10T16:28:21.997Z,105.14
2023-01-10T16:29:21.947Z,105.70
2023-01-10T16:30:21.909Z,103.18
2023-01-10T16:31:21.933Z,103.82
2023-01-10T16:32:21.828Z,105.65
2023-01-10T16:33:21.773Z,105.35
2023-01-10T16:34:21.733Z,105.17
2023-01-10T16:35:21.713Z,105.77
2023-01-10T16:36:21.653Z,107.70
2023-01-10T16:37:21.584Z,106.04
2023-01-10T16:38:21.548Z,107.35
2023-01-10T16:39:21.502Z,103.85
2023-01-10T16:40:21.451Z,105.99
2023-01-10T16:41:21.422Z,105.63
2023-01-10T16:42:21.362Z,106.63
2023-01-10T16:43:21.327Z,106.74
2023-01-10T16:44:21.267Z,106.66
2023-01-10T16:45:21.227Z,106.83
2023-01-10T16:46:21.187Z,106.80
2023-01-10T16:47:21.138Z,107.12
2023-01-10T16:48:21.100Z,105.42
2023-01-10T16:49:21.054Z,107.75
2023-01-10T16:50:21.007Z,106.42
2023-01-10T16:51:20.971Z,106.89
2023-01-10T16:52:20.936Z,106.32
2023-01-10T16:53:20.888Z,104.04
2023-01-10T16:54:20.838Z,104.90
2023-01-10T16:55:20.795Z,105.34
2023-01-10T16:56:20.757Z,105.86
2023-01-10T16:57:20.695Z,105.87
2023-01-10T16:58:20.655Z,106.93
2023-01-10T16:59:20.617Z,107.59
2023-01-10T17:00:20.555Z,104.45
2023-01-10T17:01:20.547Z,104.82
2023-01-10T17:02:20.483Z,104.34
2023-01-10T17:03:20.421Z,102.83
2023-01-10T17:04:20.435Z,106.65
2023-01-10T17:05:20.319Z,106.36
2023-01-10T17:06:20.291Z,104.05
2023-01-10T17:07:20.236Z,102.80
2023-01-10T17:08:20.183Z,103.27
2023-01-10T17:09:20.146Z,106.78
2023-01-10T17:10:20.103Z,102.53
2023-01-10T17:11:20.049Z,103.30
2023-01-10T17:12:20.009Z,105.18
2023-01-10T17:13:19.970Z,104.27
2023-01-10T17:14:19.940Z,105.89
2023-01-10T17:15:19.878Z,105.73
2023-01-10T17:16:19.988Z,105.89
2023-01-10T17:17:19.812Z,106.02
2023-01-10T17:18:19.754Z,106.78
2023-01-10T17:19:19.705Z,105.39
2023-01-10T17:20:19.654Z,104.45
2023-01-10T17:21:19.619Z,106.84
2023-01-10T17:22:19.565Z,107.64
2023-01-10T17:23:19.535Z,106.20
2023-01-10T17:24:19.495Z,105.44
2023-01-10T17:25:19.449Z,106.99
2023-01-10T17:26:19.413Z,107.07
2023-01-10T17:27:19.356Z,106.91
2023-01-10T17:28:19.328Z,103.64
2023-01-10T17:29:19.269Z,106.56
2023-01-10T17:30:19.276Z,103.97
2023-01-10T17:31:19.224Z,104.09
2023-01-10T17:32:19.153Z,104.53
2023-01-10T17:33:19.103Z,105.71
2023-01-10T17:34:19.066Z,105.54
2023-01-10T17:35:19.023Z,103.05
2023-01-10T17:36:19.585Z,103.89
2023-01-10T17:37:18.937Z,103.76
2023-01-10T17:38:18.907Z,105.93
2023-01-10T17:39:18.867Z,105.26
2023-01-10T17:40:18.824Z,103.96
2023-01-10T17:41:18.783Z,100.98
2023-01-10T17:42:18.991Z,101.66
2023-01-10T17:43:18.700Z,104.21
2023-01-10T17:44:18.693Z,102.86
2023-01-10T17:45:18.634Z,101.32
2023-01-10T17:46:18.590Z,103.89
2023-01-10T17:47:18.544Z,104.51
2023-01-10T17:48:18.503Z,103.73
2023-01-10T17:49:18.476Z,104.30
2023-01-10T17:50:18.427Z,103.97
2023-01-10T17:51:18.382Z,100.99
2023-01-10T17:52:18.361Z,101.24
2023-01-10T17:53:18.302Z,103.83
2023-01-10T17:54:18.264Z,104.83
2023-01-10T17:55:18.214Z,101.76
2023-01-10T17:56:18.179Z,102.32
2023-01-10T17:57:18.125Z,104.74
2023-01-10T17:58:18.093Z,101.31
2023-01-10T17:59:18.065Z,104.05
2023-01-10T18:00:18.014Z,103.26
2023-01-10T18:01:18.105Z,101.81
2023-01-10T18:02:18.234Z,102.22
2023-01-10T18:03:17.882Z,102.38
2023-01-10T18:04:17.848Z,102.58
2023-01-10T18:05:17.816Z,102.89
2023-01-10T18:06:23.748Z,102.78
2023-01-10T18:07:18.744Z,102.40
2023-01-10T18:08:17.693Z,102.77
2023-01-10T18:09:17.651Z,102.73
2023-01-10T18:10:17.615Z,102.32
2023-01-10T18:11:17.554Z,101.53
2023-01-10T18:12:17.517Z,102.27
2023-01-10T18:13:17.485Z,101.43
2023-01-10T18:14:17.442Z,103.81
2023-01-10T18:15:17.389Z,102.49
2023-01-10T18:16:17.401Z,103.87
2023-01-10T18:17:17.300Z,103.69
2023-01-10T18:18:17.257Z,100.95
2023-01-10T18:19:17.208Z,101.04
2023-01-10T18:20:17.172Z,102.30
2023-01-10T18:21:17.119Z,103.13
2023-01-10T18:22:17.069Z,98.91
2023-01-10T18:23:17.032Z,102.85
2023-01-10T18:24:16.986Z,99.66
2023-01-10T18:25:16.952Z,101.61
2023-01-10T18:26:16.903Z,100.79
2023-01-10T18:27:16.852Z,99.61
2023-01-10T18:28:16.919Z,99.90
2023-01-10T18:29:16.771Z,100.11
2023-01-10T18:30:16.751Z,100.61
2023-01-10T18:31:16.878Z,101.02
2023-01-10T18:32:16.669Z,100.67
2023-01-10T18:33:16.597Z,100.07
2023-01-10T18:34:16.560Z,99.06
2023-01-10T18:35:16.528Z,99.99
2023-01-10T18:36:16.466Z,100.44
2023-01-10T18:37:16.427Z,99.47
2023-01-10T18:38:16.383Z,102.62
2023-01-10T18:39:16.348Z,96.75
2023-01-10T18:40:16.337Z,98.32
2023-01-10T18:41:16.279Z,99.02
2023-01-10T18:42:16.237Z,99.32
2023-01-10T18:43:16.193Z,100.73
2023-01-10T18:44:16.170Z,100.29
2023-01-10T18:45:16.126Z,98.35
2023-01-10T18:46:16.173Z,99.43
2023-01-10T18:47:16.054Z,96.41
2023-01-10T18:48:15.979Z,99.22
2023-01-10T18:49:15.939Z,100.88
2023-01-10T18:50:15.903Z,98.45
2023-01-10T18:51:15.867Z,98.72
2023-01-10T18:52:15.817Z,100.05
2023-01-10T18:53:15.769Z,97.45
2023-01-10T18:54:15.734Z,98.72
2023-01-10T18:55:15.689Z,97.41
2023-01-10T18:56:15.648Z,98.83
2023-01-10T18:57:15.603Z,96.90
2023-01-10T18:58:15.553Z,98.15
2023-01-10T18:59:15.522Z,98.13
2023-01-10T19:00:15.462Z,96.89
2023-01-10T19:01:15.484Z,99.02
2023-01-10T19:02:15.389Z,96.69
2023-01-10T19:03:15.335Z,95.65
2023-01-10T19:04:15.284Z,99.46
2023-01-10T19:05:15.241Z,95.51
2023-01-10T19:06:15.268Z,96.83
2023-01-10T19:07:15.158Z,99.45
2023-01-10T19:08:15.114Z,94.47
2023-01-10T19:09:15.053Z,96.09
2023-01-10T19:10:15.011Z,97.13
2023-01-10T19:11:16.111Z,96.64
2023-01-10T19:12:14.946Z,95.40
2023-01-10T19:13:14.889Z,97.24
2023-01-10T19:14:14.848Z,95.74
2023-01-10T19:15:14.807Z,98.46
2023-01-10T19:16:14.822Z,93.53
2023-01-10T19:17:14.709Z,97.29
2023-01-10T19:18:14.669Z,95.37
2023-01-10T19:19:14.615Z,96.70
2023-01-10T19:20:14.575Z,95.14
2023-01-10T19:21:14.531Z,93.84
2023-01-10T19:22:14.486Z,97.68
2023-01-10T19:23:14.435Z,96.34
2023-01-10T19:24:14.391Z,95.73
2023-01-10T19:25:14.349Z,96.30
2023-01-10T19:26:14.319Z,96.59
2023-01-10T19:27:14.260Z,96.66
2023-01-10T19:28:14.221Z,94.30
2023-01-10T19:29:14.185Z,94.52
2023-01-10T19:30:14.134Z,95.14
2023-01-10T19:31:14.143Z,95.15
2023-01-10T19:32:14.052Z,94.40
2023-01-10T19:33:14.018Z,97.06
2023-01-10T19:34:13.975Z,94.31
2023-01-10T19:35:13.928Z,96.92
2023-01-10T19:36:13.884Z,95.97
2023-01-10T19:37:13.838Z,94.66
2023-01-10T19:38:13.788Z,93.63
2023-01-10T19:39:13.757Z,94.11
2023-01-10T19:40:13.717Z,96.04
2023-01-10T19:41:13.660Z,96.26
2023-01-10T19:42:13.610Z,93.23
2023-01-10T19:43:13.571Z,93.87
2023-01-10T19:44:13.520Z,96.02
2023-01-10T19:45:13.474Z,96.50
2023-01-10T19:46:13.465Z,95.15
2023-01-10T19:47:13.392Z,94.10
2023-01-10T19:48:13.328Z,92.78
2023-01-10T19:49:13.292Z,95.46
2023-01-10T19:50:13.240Z,92.63
2023-01-10T19:51:13.222Z,92.89
2023-01-10T19:52:13.137Z,93.43
2023-01-10T19:53:13.093Z,92.92
2023-01-10T19:54:13.051Z,93.58
2023-01-10T19:55:13.005Z,94.34
2023-01-10T19:56:12.963Z,93.97
2023-01-10T19:57:12.923Z,91.89
2023-01-10T19:58:12.863Z,93.70
2023-01-10T19:59:12.833Z,95.18
2023-01-10T20:00:12.785Z,93.07
2023-01-10T20:01:12.745Z,90.94
2023-01-10T20:02:12.856Z,93.14
2023-01-10T20:03:12.638Z,92.37
2023-01-10T20:04:12.613Z,93.42
2023-01-10T20:05:12.575Z,90.62
2023-01-10T20:06:12.518Z,94.37
2023-01-10T20:07:12.486Z,92.92
2023-01-10T20:08:12.446Z,91.12
2023-01-10T20:09:12.395Z,93.25
2023-01-10T20:10:12.351Z,93.20
2023-01-10T20:11:12.307Z,90.56
2023-01-10T20:12:12.265Z,91.59
2023-01-10T20:13:12.224Z,92.84
2023-01-10T20:14:12.170Z,91.37
2023-01-10T20:15:12.133Z,91.18
2023-01-10T20:16:12.129Z,89.89
2023-01-10T20:17:12.036Z,91.24
2023-01-10T20:18:12.004Z,92.01
2023-01-10T20:19:11.953Z,92.47
2023-01-10T20:20:11.908Z,93.34
2023-01-10T20:21:11.862Z,90.65
2023-01-10T20:22:11.825Z,89.92